Time;durP1;ratioP1;P1;durP2;ratioP2;P2;SDS_P1;SDS_P2;PMS_P1;PMS_P2;Temp;Humidity;BMP_temperature;BMP_pressure;BME280_temperature;BME280_humidity;BME280_pressure;Samples;Min_cycle;Max_cycle;Signal;HPM_P1;HPM_P2
2023/01/03 00:01:48;;;;;;;;;;;;;;;24.71;37.81;96164.22;4941794;29;1403;-86
2023/01/03 00:04:14;;;;;;;;;;;;;;;24.69;37.44;96159.03;4937183;28;1131;-87
2023/01/03 00:06:41;;;;;;;;;;;;;;;24.67;37.36;96161.09;4959278;29;1287;-85
2023/01/03 00:09:10;;;;;;;;;;;;;;;24.65;37.52;96165.84;4937696;29;1678;-85
2023/01/03 00:14:22;;;;;;;;;;;;;;;24.63;37.28;96157.16;4966835;28;1431;-83
2023/01/03 00:16:52;;;;;;;;;;;;;;;24.62;37.41;96158.22;4969648;28;1458;-84
2023/01/03 00:19:17;;;;;;;;;;;;;;;24.60;37.60;96155.72;4970942;28;1914;-84
2023/01/03 00:21:43;;;;;;;;;;;;;;;24.59;37.66;96156.75;4950729;28;1729;-83
2023/01/03 00:24:08;;;;;;;;;;;;;;;24.61;37.98;96159.22;4944721;28;1815;-87
2023/01/03 00:26:34;;;;;;;;;;;;;;;24.62;37.96;96164.41;4955053;28;1714;-88
2023/01/03 00:28:59;;;;;;;;;;;;;;;24.66;37.94;96159.44;4956204;28;1332;-85
2023/01/03 00:31:24;;;;;;;;;;;;;;;24.68;37.63;96162.75;4943369;29;1388;-85
2023/01/03 00:33:50;;;;;;;;;;;;;;;24.69;37.79;96154.50;4964802;28;1458;-85
2023/01/03 00:36:15;;;;;;;;;;;;;;;24.71;37.69;96161.53;4959526;28;1437;-85
2023/01/03 00:38:41;;;;;;;;;;;;;;;24.72;37.40;96153.25;4951122;28;1879;-85
2023/01/03 00:41:07;;;;;;;;;;;;;;;24.74;37.33;96164.63;4941808;29;1645;-85
2023/01/03 00:43:33;;;;;;;;;;;;;;;24.75;37.39;96160.06;4955768;29;1317;-86
2023/01/03 00:45:59;;;;;;;;;;;;;;;24.75;37.57;96160.91;4960526;28;1327;-86
2023/01/03 00:48:24;;;;;;;;;;;;;;;24.76;37.57;96156.34;4960200;29;1549;-85
2023/01/03 00:50:49;;;;;;;;;;;;;;;24.78;37.32;96160.50;4951541;28;1519;-86
2023/01/03 00:53:15;;;;;;;;;;;;;;;24.78;37.32;96160.50;4960720;28;1187;-85
2023/01/03 00:55:40;;;;;;;;;;;;;;;24.78;37.50;96160.50;4953272;28;1477;-85
2023/01/03 00:58:05;;;;;;;;;;;;;;;24.79;37.19;96151.44;4956819;28;1970;-85
2023/01/03 01:00:31;;;;;;;;;;;;;;;24.80;37.12;96146.88;4937310;28;1361;-86
2023/01/03 01:02:56;;;;;;;;;;;;;;;24.80;37.39;96150.38;4945055;29;1382;-86
2023/01/03 01:05:21;;;;;;;;;;;;;;;24.81;37.38;96146.66;4958470;28;1412;-85
2023/01/03 01:07:46;;;;;;;;;;;;;;;24.81;37.34;96153.88;4977711;28;1508;-83
2023/01/03 01:10:12;;;;;;;;;;;;;;;24.80;37.10;96147.69;4959419;28;1580;-84
2023/01/03 01:12:37;;;;;;;;;;;;;;;24.79;37.28;96151.44;4934861;28;1697;-84
2023/01/03 01:15:03;;;;;;;;;;;;;;;24.78;37.25;96146.25;4940529;28;1287;-84
2023/01/03 01:17:28;;;;;;;;;;;;;;;24.74;37.40;96136.97;4956731;28;1910;-84
2023/01/03 01:19:53;;;;;;;;;;;;;;;24.74;37.66;96137.78;4957778;28;1579;-86
2023/01/03 01:22:19;;;;;;;;;;;;;;;24.74;37.68;96137.78;4974093;28;1490;-87
2023/01/03 01:24:44;;;;;;;;;;;;;;;24.76;37.62;96142.94;4966333;28;1578;-87
2023/01/03 01:27:10;;;;;;;;;;;;;;;24.78;37.86;96141.69;4966960;28;1645;-88
2023/01/03 01:29:38;;;;;;;;;;;;;;;24.79;37.51;96139.84;4978882;28;1452;-87
2023/01/03 01:32:04;;;;;;;;;;;;;;;24.79;37.70;96132.63;4961309;28;1596;-88
2023/01/03 01:34:29;;;;;;;;;;;;;;;24.80;37.66;96133.47;4953355;28;1286;-87
2023/01/03 01:36:55;;;;;;;;;;;;;;;24.80;37.62;96136.97;4943728;28;1519;-88
2023/01/03 01:39:21;;;;;;;;;;;;;;;24.80;37.68;96136.97;4964257;28;1950;-87
2023/01/03 01:44:44;;;;;;;;;;;;;;;24.81;37.85;96132.41;4965644;28;1292;-87
2023/01/03 01:47:30;;;;;;;;;;;;;;;24.79;37.75;96129.97;4966765;28;1568;-87
2023/01/03 01:49:58;;;;;;;;;;;;;;;24.81;37.56;96133.25;4971797;28;1425;-83
2023/01/03 01:52:24;;;;;;;;;;;;;;;24.79;37.73;96135.31;4970853;28;1414;-82
2023/01/03 01:54:50;;;;;;;;;;;;;;;24.82;37.53;96123.34;4956392;28;1424;-83
2023/01/03 01:57:17;;;;;;;;;;;;;;;24.80;37.64;96117.34;4950458;28;1969;-82
2023/01/03 01:59:43;;;;;;;;;;;;;;;24.81;37.63;96119.81;4950031;29;1419;-83
2023/01/03 02:02:08;;;;;;;;;;;;;;;24.80;37.66;96126.22;4955824;28;1815;-83
2023/01/03 02:04:36;;;;;;;;;;;;;;;24.79;37.73;96126.41;4964434;28;1547;-82
2023/01/03 02:07:01;;;;;;;;;;;;;;;24.77;37.72;96123.13;4959382;28;1435;-82
2023/01/03 02:09:27;;;;;;;;;;;;;;;24.76;38.02;96125.00;4945530;28;1764;-87
2023/01/03 02:13:04;;;;;;;;;;;;;;;24.75;37.83;96120.66;4959397;28;1494;-86
2023/01/03 02:14:53;;;;;;;;;;;;;;;24.78;38.00;96114.03;4980534;28;1492;-87
2023/01/03 02:17:32;;;;;;;;;;;;;;;24.76;37.95;96114.25;4975361;28;1891;-87
2023/01/03 02:20:10;;;;;;;;;;;;;;;24.78;37.83;96117.53;4963191;28;1396;-88
2023/01/03 02:22:54;;;;;;;;;;;;;;;24.80;38.03;96118.19;4976998;28;1336;-87
2023/01/03 02:25:19;;;;;;;;;;;;;;;24.79;37.89;96116.53;4959804;28;1556;-84
2023/01/03 02:27:44;;;;;;;;;;;;;;;24.79;37.88;96115.69;4962665;28;1316;-84
2023/01/03 02:30:12;;;;;;;;;;;;;;;24.80;38.03;96114.66;4966086;28;1572;-84
2023/01/03 02:32:38;;;;;;;;;;;;;;;24.78;38.11;96117.53;4970085;28;1586;-84
2023/01/03 02:35:03;;;;;;;;;;;;;;;24.76;38.10;96111.59;4975559;28;895;-85
2023/01/03 02:37:51;;;;;;;;;;;;;;;24.77;38.25;96115.91;4959496;28;1914;-85
2023/01/03 02:40:19;;;;;;;;;;;;;;;24.79;38.11;96110.31;4955290;29;1510;-84
2023/01/03 02:42:57;;;;;;;;;;;;;;;24.78;38.27;96120.22;4942934;28;1653;-83
2023/01/03 02:45:26;;;;;;;;;;;;;;;24.78;37.97;96117.53;4956790;28;1544;-83
2023/01/03 02:47:53;;;;;;;;;;;;;;;24.79;38.09;96113.84;4955282;28;1436;-85
2023/01/03 02:50:22;;;;;;;;;;;;;;;24.81;38.16;96111.75;4957598;28;1543;-84
2023/01/03 02:52:50;;;;;;;;;;;;;;;24.80;38.20;96112.81;4970553;28;1379;-84
2023/01/03 02:55:17;;;;;;;;;;;;;;;24.82;38.22;96117.97;4951708;28;1698;-84
2023/01/03 02:57:46;;;;;;;;;;;;;;;24.81;38.25;96113.63;4961818;28;1977;-84
2023/01/03 03:00:13;;;;;;;;;;;;;;;24.81;38.19;96114.44;4946927;28;1296;-82
2023/01/03 03:02:44;;;;;;;;;;;;;;;24.82;38.29;96105.38;4965984;28;1635;-84
2023/01/03 03:05:11;;;;;;;;;;;;;;;24.81;38.05;96109.09;4970655;28;1525;-85
2023/01/03 03:07:38;;;;;;;;;;;;;;;24.81;38.17;96113.63;4948319;28;1453;-81
2023/01/03 03:15:39;;;;;;;;;;;;;;;24.81;38.07;96109.09;4945938;29;1107;-82
2023/01/03 03:18:08;;;;;;;;;;;;;;;24.83;38.18;96108.88;4951975;28;1973;-81
2023/01/03 03:26:13;;;;;;;;;;;;;;;24.79;38.30;96103.13;4964479;28;1429;-81
2023/01/03 03:28:42;;;;;;;;;;;;;;;24.81;38.07;96103.72;4955036;28;1387;-81
2023/01/03 03:31:16;;;;;;;;;;;;;;;24.82;38.27;96096.50;4943457;28;1645;-80
2023/01/03 03:33:45;;;;;;;;;;;;;;;24.82;38.12;96107.25;4948088;28;1646;-81
2023/01/03 03:36:31;;;;;;;;;;;;;;;24.82;38.05;96105.38;4980733;28;1562;-83
2023/01/03 03:38:56;;;;;;;;;;;;;;;24.82;38.15;96110.75;4980076;28;1910;-82
2023/01/03 03:47:20;;;;;;;;;;;;;;;24.82;38.24;96112.63;4957987;28;1320;-83
2023/01/03 03:49:47;;;;;;;;;;;;;;;24.80;38.25;96112.00;4971167;28;1452;-81
2023/01/03 03:52:18;;;;;;;;;;;;;;;24.78;38.30;96114.88;4947595;28;1509;-81
2023/01/03 03:54:47;;;;;;;;;;;;;;;24.80;38.38;96118.19;4949312;29;1623;-83
2023/01/03 03:57:33;;;;;;;;;;;;;;;24.82;38.55;96117.97;4958640;28;1520;-84
2023/01/03 04:00:02;;;;;;;;;;;;;;;24.80;38.39;96114.66;4959796;28;1617;-83
2023/01/03 04:02:29;;;;;;;;;;;;;;;24.80;38.33;96114.66;4960130;28;1498;-83
2023/01/03 04:04:56;;;;;;;;;;;;;;;24.81;38.35;96114.44;4964606;28;1544;-81
2023/01/03 04:07:21;;;;;;;;;;;;;;;24.81;38.51;96113.63;4959389;28;1382;-81
2023/01/03 04:09:47;;;;;;;;;;;;;;;24.81;38.33;96109.09;4952808;28;1415;-81
2023/01/03 04:12:12;;;;;;;;;;;;;;;24.81;38.38;96113.63;4971918;28;886;-82
2023/01/03 04:14:37;;;;;;;;;;;;;;;24.79;38.60;96105.78;4939424;28;1547;-82
2023/01/03 04:17:02;;;;;;;;;;;;;;;24.80;38.40;96112.81;4958572;28;1603;-84
2023/01/03 04:19:28;;;;;;;;;;;;;;;24.82;38.41;96108.06;4946089;28;1907;-82
2023/01/03 04:21:53;;;;;;;;;;;;;;;24.81;38.28;96103.72;4961632;28;1697;-82
2023/01/03 04:24:21;;;;;;;;;;;;;;;24.82;38.62;96113.44;4941166;28;1637;-81
2023/01/03 04:26:46;;;;;;;;;;;;;;;24.82;38.67;96110.75;4952497;28;1298;-81
2023/01/03 04:29:11;;;;;;;;;;;;;;;24.81;38.69;96117.13;4960575;28;1299;-85
2023/01/03 04:31:36;;;;;;;;;;;;;;;24.82;38.63;96110.75;4959393;28;1624;-83
2023/01/03 04:34:02;;;;;;;;;;;;;;;24.80;38.69;96112.81;4957819;28;1369;-82
2023/01/03 04:36:27;;;;;;;;;;;;;;;24.83;38.31;96111.56;4967531;28;1638;-85
2023/01/03 04:38:52;;;;;;;;;;;;;;;24.84;38.51;96113.22;4965884;28;1882;-79
2023/01/03 04:41:18;;;;;;;;;;;;;;;24.85;38.52;96115.72;4963401;28;1555;-79
2023/01/03 04:44:03;;;;;;;;;;;;;;;24.11;29.33;96123.78;4972931;28;1284;-82
2023/01/03 04:46:33;;;;;;;;;;;;;;;21.06;26.62;96128.50;4951057;28;1399;-82
2023/01/03 04:48:59;;;;;;;;;;;;;;;19.34;27.51;96131.28;4951598;28;1544;-83
2023/01/03 04:51:24;;;;;;;;;;;;;;;18.60;27.73;96144.59;4968158;28;1529;-82
2023/01/03 04:53:50;;;;;;;;;;;;;;;17.90;28.02;96141.47;4965454;28;1746;-83
2023/01/03 04:56:15;;;;;;;;;;;;;;;17.35;28.45;96148.00;4940251;29;1298;-84
2023/01/03 04:58:40;;;;;;;;;;;;;;;16.90;28.67;96146.38;4954557;29;1944;-85
2023/01/03 05:01:09;;;;;;;;;;;;;;;16.54;29.23;96148.22;4969905;28;1610;-83
2023/01/03 05:03:34;;;;;;;;;;;;;;;16.22;29.68;96144.28;4966151;28;1441;-83
2023/01/03 05:06:00;;;;;;;;;;;;;;;16.25;31.07;96154.59;4960970;28;1514;-85
2023/01/03 05:08:26;;;;;;;;;;;;;;;16.55;30.71;96152.53;4953490;28;1572;-82
2023/01/03 05:10:54;;;;;;;;;;;;;;;17.80;32.35;96149.56;4958027;28;1583;-82
2023/01/03 05:13:19;;;;;;;;;;;;;;;19.03;32.21;96155.94;4957814;28;1332;-82
2023/01/03 05:15:45;;;;;;;;;;;;;;;19.91;31.82;96155.06;4952358;28;1797;-85
2023/01/03 05:18:10;;;;;;;;;;;;;;;20.58;32.02;96151.91;4962064;28;1918;-82
2023/01/03 05:26:06;;;;;;;;;;;;;;;21.54;32.04;96157.56;4940541;29;630;-81
2023/01/03 05:28:32;;;;;;;;;;;;;;;21.74;32.10;96158.69;4939552;29;847;-80
2023/01/03 05:30:57;;;;;;;;;;;;;;;21.89;31.98;96156.00;4939097;29;1194;-80
2023/01/03 05:33:23;;;;;;;;;;;;;;;22.04;31.95;96164.00;4922359;29;1285;-81
2023/01/03 05:35:49;;;;;;;;;;;;;;;22.16;31.94;96159.81;4933283;28;1180;-81
2023/01/03 05:38:14;;;;;;;;;;;;;;;22.26;31.70;96161.44;4939739;29;1977;-81
2023/01/03 05:40:40;;;;;;;;;;;;;;;22.35;31.96;96160.28;4941104;29;808;-81
2023/01/03 05:43:05;;;;;;;;;;;;;;;22.41;31.91;96151.50;4938821;29;1205;-80
2023/01/03 05:45:31;;;;;;;;;;;;;;;22.45;32.00;96148.28;4934067;29;1034;-80
2023/01/03 05:47:57;;;;;;;;;;;;;;;22.52;31.75;96156.38;4939067;29;1066;-80
2023/01/03 05:50:23;;;;;;;;;;;;;;;22.58;31.93;96150.25;4941648;29;1186;-80
2023/01/03 05:52:48;;;;;;;;;;;;;;;22.62;31.92;96154.19;4942329;29;1200;-78
2023/01/03 05:55:14;;;;;;;;;;;;;;;22.66;32.02;96158.16;4942562;29;1237;-78
2023/01/03 05:57:39;;;;;;;;;;;;;;;22.71;32.05;96157.56;4935949;29;1915;-79
2023/01/03 06:00:05;;;;;;;;;;;;;;;22.75;31.97;96164.19;4942239;29;1205;-79
2023/01/03 06:02:30;;;;;;;;;;;;;;;22.79;32.14;96161.97;4941914;29;1213;-79
2023/01/03 06:04:55;;;;;;;;;;;;;;;22.81;31.82;96165.28;4942066;29;1194;-79
2023/01/03 06:07:21;;;;;;;;;;;;;;;22.81;32.29;96168.78;4941722;29;1618;-78
2023/01/03 06:09:46;;;;;;;;;;;;;;;22.85;32.07;96167.41;4936501;29;1201;-78
2023/01/03 06:12:18;;;;;;;;;;;;;;;22.87;32.22;96172.53;4944103;29;815;-81
2023/01/03 06:14:43;;;;;;;;;;;;;;;22.88;32.27;96177.72;4942848;29;1417;-79
2023/01/03 06:19:55;;;;;;;;;;;;;;;22.94;32.31;96181.47;4937930;28;1186;-79
2023/01/03 06:22:20;;;;;;;;;;;;;;;22.96;32.28;96181.31;4942238;29;1386;-79
2023/01/03 06:24:45;;;;;;;;;;;;;;;22.97;32.19;96186.47;4942195;29;1206;-79
2023/01/03 06:27:10;;;;;;;;;;;;;;;23.00;32.15;96188.75;4942221;29;1436;-80
2023/01/03 06:29:36;;;;;;;;;;;;;;;23.01;32.35;96187.72;4942010;29;1422;-80
2023/01/03 06:32:01;;;;;;;;;;;;;;;23.02;32.32;96184.03;4936087;28;1415;-80
2023/01/03 06:34:26;;;;;;;;;;;;;;;23.02;32.40;96184.03;4942628;29;906;-79
2023/01/03 06:36:51;;;;;;;;;;;;;;;23.05;32.35;96186.34;4942017;29;1297;-80
2023/01/03 06:39:17;;;;;;;;;;;;;;;23.04;32.45;96179.31;4942994;29;1948;-78
2023/01/03 06:41:42;;;;;;;;;;;;;;;23.06;32.37;96182.63;4939036;28;1292;-78
2023/01/03 06:44:08;;;;;;;;;;;;;;;23.07;32.29;96180.78;4938593;29;1230;-79
2023/01/03 06:54:47;;;;;;;;;;;;;;;23.09;32.50;96189.47;4936267;28;1071;-78
2023/01/03 06:57:15;;;;;;;;;;;;;;;23.09;32.62;96190.28;4941763;29;1194;-79
2023/01/03 06:59:40;;;;;;;;;;;;;;;23.10;32.60;96191.09;4938877;29;1899;-79
2023/01/03 07:02:05;;;;;;;;;;;;;;;23.10;32.68;96199.97;4937268;29;1512;-79
2023/01/03 07:04:31;;;;;;;;;;;;;;;23.10;32.75;96197.28;4935715;28;1001;-78
2023/01/03 07:06:56;;;;;;;;;;;;;;;23.10;32.46;96199.97;4935043;29;1252;-79
2023/01/03 07:09:23;;;;;;;;;;;;;;;23.11;32.46;96195.47;4937749;29;1339;-78
2023/01/03 07:11:48;;;;;;;;;;;;;;;23.12;32.49;96205.97;4939216;29;843;-80
2023/01/03 07:14:13;;;;;;;;;;;;;;;23.14;32.59;96203.09;4939334;29;839;-80
2023/01/03 07:16:40;;;;;;;;;;;;;;;23.15;32.74;96211.94;4931457;28;1261;-80
2023/01/03 07:19:07;;;;;;;;;;;;;;;23.18;32.67;96208.88;4937895;29;1974;-79
2023/01/03 07:21:32;;;;;;;;;;;;;;;23.18;32.68;96216.91;4938876;29;900;-77
2023/01/03 07:24:00;;;;;;;;;;;;;;;23.19;32.56;96223.91;4937616;29;1177;-81
2023/01/03 07:26:26;;;;;;;;;;;;;;;23.23;32.44;96222.53;4937647;29;1206;-78
2023/01/03 07:28:51;;;;;;;;;;;;;;;23.27;32.57;96224.63;4962316;28;1447;-79
2023/01/03 07:31:17;;;;;;;;;;;;;;;23.25;32.46;96226.69;4937520;29;1327;-77
2023/01/03 07:33:44;;;;;;;;;;;;;;;23.24;32.44;96226.84;4938783;29;1042;-79
2023/01/03 07:36:10;;;;;;;;;;;;;;;23.24;32.51;96225.00;4937314;29;1323;-79
2023/01/03 07:38:35;;;;;;;;;;;;;;;23.23;32.61;96218.00;4933499;28;1898;-79
2023/01/03 07:41:01;;;;;;;;;;;;;;;23.26;32.71;96227.50;4933170;29;1374;-79
2023/01/03 07:43:36;;;;;;;;;;;;;;;23.28;32.50;96220.09;4938266;29;816;-79
2023/01/03 07:46:09;;;;;;;;;;;;;;;23.30;32.52;96221.53;4937482;29;1299;-79
2023/01/03 07:48:37;;;;;;;;;;;;;;;23.31;32.62;96220.53;4938721;29;793;-79
2023/01/03 07:51:03;;;;;;;;;;;;;;;23.36;32.66;96227.97;4930080;29;1236;-80
2023/01/03 07:53:29;;;;;;;;;;;;;;;23.39;32.67;96232.13;4937597;29;1190;-79
2023/01/03 07:56:00;;;;;;;;;;;;;;;23.41;32.42;96233.59;4936931;29;1244;-79
2023/01/03 07:58:26;;;;;;;;;;;;;;;23.44;32.67;96225.16;4936911;29;1895;-79
2023/01/03 08:00:51;;;;;;;;;;;;;;;23.48;32.33;96214.88;4938229;29;1238;-80
2023/01/03 08:03:16;;;;;;;;;;;;;;;23.52;32.33;96222.34;4930346;28;1251;-80
2023/01/03 08:05:41;;;;;;;;;;;;;;;23.55;32.59;96221.13;4938150;29;819;-80
2023/01/03 08:08:07;;;;;;;;;;;;;;;23.59;32.23;96227.75;4937505;29;1263;-80
2023/01/03 08:13:17;;;;;;;;;;;;;;;23.62;32.47;96222.00;4930301;28;1159;-79
2023/01/03 08:15:50;;;;;;;;;;;;;;;23.64;32.45;96229.84;4936189;29;1217;-79
2023/01/03 08:18:17;;;;;;;;;;;;;;;23.65;32.53;96223.47;4936227;29;1972;-79
2023/01/03 08:20:43;;;;;;;;;;;;;;;23.67;32.43;96224.09;4937278;29;939;-79
2023/01/03 08:23:08;;;;;;;;;;;;;;;23.69;32.58;96224.75;4936000;29;1219;-78
2023/01/03 08:25:33;;;;;;;;;;;;;;;23.69;32.39;96222.06;4930588;29;1059;-77
2023/01/03 08:27:59;;;;;;;;;;;;;;;23.70;32.42;96227.25;4937027;29;816;-77
2023/01/03 08:30:25;;;;;;;;;;;;;;;23.70;32.34;96219.19;4937245;29;902;-79
2023/01/03 08:32:52;;;;;;;;;;;;;;;23.71;32.50;96217.38;4936532;29;1496;-79
2023/01/03 08:35:18;;;;;;;;;;;;;;;23.72;32.49;96216.34;4933014;28;1213;-79
2023/01/03 08:37:44;;;;;;;;;;;;;;;23.71;32.64;96220.06;4932573;29;1941;-79
2023/01/03 08:40:09;;;;;;;;;;;;;;;23.73;32.51;96221.50;4935876;29;1317;-79
2023/01/03 08:42:35;;;;;;;;;;;;;;;23.74;32.68;96223.16;4936904;29;989;-80
2023/01/03 08:45:03;;;;;;;;;;;;;;;23.74;32.44;96222.34;4935875;29;1374;-78
2023/01/03 08:47:28;;;;;;;;;;;;;;;23.72;32.54;96224.38;4930072;29;1251;-78
2023/01/03 08:49:55;;;;;;;;;;;;;;;23.73;32.47;96217.97;4935491;29;1211;-78
2023/01/03 08:52:20;;;;;;;;;;;;;;;23.72;32.44;96222.53;4935766;29;1212;-78
2023/01/03 08:54:45;;;;;;;;;;;;;;;23.71;32.48;96215.53;4936248;29;1201;-81
2023/01/03 08:57:10;;;;;;;;;;;;;;;23.71;32.48;96220.06;4935790;29;1312;-79
2023/01/03 08:59:36;;;;;;;;;;;;;;;23.71;32.56;96220.06;4928916;28;1899;-80
2023/01/03 09:02:01;;;;;;;;;;;;;;;23.71;32.49;96215.53;4936986;29;1285;-79
2023/01/03 09:04:26;;;;;;;;;;;;;;;23.70;32.20;96213.84;4935397;29;1206;-79
2023/01/03 09:06:52;;;;;;;;;;;;;;;23.71;32.46;96215.53;4936230;29;1121;-79
2023/01/03 09:09:17;;;;;;;;;;;;;;;23.71;32.38;96217.38;4932871;28;1174;-80
2023/01/03 09:11:42;;;;;;;;;;;;;;;23.72;32.37;96200.25;4932446;29;1015;-79
2023/01/03 09:14:08;;;;;;;;;;;;;;;23.70;32.52;96197.78;4935643;29;1419;-79
2023/01/03 09:16:33;;;;;;;;;;;;;;;23.70;32.44;96202.28;4935595;29;1190;-79
2023/01/03 09:18:58;;;;;;;;;;;;;;;23.69;32.41;96196.09;4935405;29;1942;-79
2023/01/03 09:21:24;;;;;;;;;;;;;;;23.70;32.62;96196.91;4929169;29;1198;-80
2023/01/03 09:23:50;;;;;;;;;;;;;;;23.70;32.55;96192.41;4934893;29;1336;-77
2023/01/03 09:26:15;;;;;;;;;;;;;;;23.72;32.50;96184.19;4935111;29;1225;-79
2023/01/03 09:28:40;;;;;;;;;;;;;;;23.71;32.57;96193.25;4935569;29;1292;-79
2023/01/03 09:31:06;;;;;;;;;;;;;;;23.72;32.73;96178.84;4935747;29;1220;-79
2023/01/03 09:33:31;;;;;;;;;;;;;;;23.72;32.63;96179.66;4927741;28;1224;-79
2023/01/03 09:35:56;;;;;;;;;;;;;;;23.73;32.73;96172.44;4967290;28;1260;-79
2023/01/03 09:38:22;;;;;;;;;;;;;;;23.73;32.57;96170.56;4934979;29;1899;-79
2023/01/03 09:40:55;;;;;;;;;;;;;;;23.74;32.79;96160.72;4935163;29;1287;-80
2023/01/03 09:43:21;;;;;;;;;;;;;;;23.74;32.52;96166.91;4934973;29;1184;-80
2023/01/03 09:45:51;;;;;;;;;;;;;;;23.74;32.74;96161.53;4930972;29;1226;-79
2023/01/03 09:48:19;;;;;;;;;;;;;;;23.75;32.60;96157.00;4935147;29;1393;-80
2023/01/03 09:50:45;;;;;;;;;;;;;;;23.76;32.47;96154.13;4936570;29;831;-79
2023/01/03 10:04:05;;;;;;;;;;;;;;;23.77;32.57;96133.53;4936574;29;713;-79
2023/01/03 10:06:42;;;;;;;;;;;;;;;23.77;32.71;96125.47;4933100;28;1243;-79
2023/01/03 10:09:10;;;;;;;;;;;;;;;23.78;32.60;96129.81;4966065;28;1262;-79
2023/01/03 10:11:38;;;;;;;;;;;;;;;23.78;32.65;96129.81;4967043;28;1245;-80
2023/01/03 10:14:42;;;;;;;;;;;;;;;23.78;32.45;96119.91;4967995;28;1356;-80
2023/01/03 10:17:08;;;;;;;;;;;;;;;23.79;32.74;96115.38;4956420;28;1426;-79
2023/01/03 10:19:48;;;;;;;;;;;;;;;23.79;32.33;96115.38;4949435;28;1985;-80
2023/01/03 10:22:17;;;;;;;;;;;;;;;23.79;32.53;96107.34;4943615;28;1208;-79
2023/01/03 10:24:49;;;;;;;;;;;;;;;23.79;32.51;96104.66;4934853;29;1210;-80
2023/01/03 10:27:14;;;;;;;;;;;;;;;23.79;32.76;96101.97;4935505;29;1243;-80
2023/01/03 10:29:39;;;;;;;;;;;;;;;23.80;32.42;96103.66;4959833;28;1354;-80
2023/01/03 10:32:08;;;;;;;;;;;;;;;23.80;32.53;96095.59;4934677;29;1339;-80
2023/01/03 10:34:33;;;;;;;;;;;;;;;23.79;32.42;96089.44;4967773;28;1411;-80
2023/01/03 10:36:59;;;;;;;;;;;;;;;23.80;32.37;96084.88;4938784;29;1308;-81
2023/01/03 10:39:29;;;;;;;;;;;;;;;23.79;32.39;96078.72;4938459;29;1960;-79
2023/01/03 10:41:56;;;;;;;;;;;;;;;23.79;32.45;96075.19;4932173;28;1218;-79
2023/01/03 10:44:22;;;;;;;;;;;;;;;23.79;32.29;96077.84;4939774;29;922;-78
2023/01/03 10:46:50;;;;;;;;;;;;;;;23.79;32.70;96067.13;4970421;28;1347;-79
2023/01/03 10:49:20;;;;;;;;;;;;;;;23.79;32.39;96067.13;4939350;29;901;-80
2023/01/03 10:51:54;;;;;;;;;;;;;;;23.79;32.41;96067.13;4935920;29;1027;-80
2023/01/03 10:54:20;;;;;;;;;;;;;;;23.79;32.51;96067.13;4966710;28;1208;-80
2023/01/03 10:56:46;;;;;;;;;;;;;;;23.79;32.23;96056.41;4969938;28;1439;-79
2023/01/03 10:59:15;;;;;;;;;;;;;;;23.78;32.61;96060.13;4922459;29;1907;-79
2023/01/03 11:01:58;;;;;;;;;;;;;;;23.78;32.43;96052.09;4937258;29;1312;-79
2023/01/03 11:04:23;;;;;;;;;;;;;;;23.78;32.27;96049.41;4930238;29;1400;-79
2023/01/03 11:07:07;;;;;;;;;;;;;;;23.78;32.53;96038.69;4937322;29;1356;-79
2023/01/03 11:09:34;;;;;;;;;;;;;;;23.77;32.56;96037.06;4938100;29;887;-79
2023/01/03 11:12:04;;;;;;;;;;;;;;;23.77;32.61;96035.19;4937628;29;1209;-79
2023/01/03 11:14:29;;;;;;;;;;;;;;;23.78;32.30;96036.03;4934165;29;1290;-79
2023/01/03 11:16:55;;;;;;;;;;;;;;;23.78;32.36;96023.44;4933792;29;1516;-79
2023/01/03 11:19:20;;;;;;;;;;;;;;;23.79;32.68;96024.25;4969804;28;1982;-79
2023/01/03 11:21:45;;;;;;;;;;;;;;;23.78;32.56;96012.72;4937854;29;1397;-79
2023/01/03 11:24:13;;;;;;;;;;;;;;;23.79;32.50;96017.06;4938530;29;880;-79
2023/01/03 11:26:57;;;;;;;;;;;;;;;23.80;32.45;96012.53;4962777;28;1356;-79
2023/01/03 11:29:30;;;;;;;;;;;;;;;23.80;32.53;96009.84;4969427;28;1306;-79
2023/01/03 11:32:09;;;;;;;;;;;;;;;23.78;32.46;96004.69;4937297;29;1355;-79
2023/01/03 11:34:51;;;;;;;;;;;;;;;23.79;32.65;96002.81;4936843;29;1414;-79
2023/01/03 11:37:26;;;;;;;;;;;;;;;23.79;32.59;95994.78;4965838;28;1198;-80
2023/01/03 11:39:51;;;;;;;;;;;;;;;23.80;32.40;95988.41;4966033;28;1911;-80
2023/01/03 11:42:25;;;;;;;;;;;;;;;23.80;32.54;95991.09;4969281;28;1216;-80
2023/01/03 11:44:56;;;;;;;;;;;;;;;23.83;32.59;95979.16;4969458;28;1334;-80
2023/01/03 11:47:25;;;;;;;;;;;;;;;23.82;32.42;95975.63;4937762;29;927;-80
2023/01/03 11:50:08;;;;;;;;;;;;;;;23.84;32.11;95970.06;4931082;29;1048;-81
2023/01/03 11:52:52;;;;;;;;;;;;;;;23.86;32.20;95976.06;4937278;29;1262;-80
2023/01/03 11:55:26;;;;;;;;;;;;;;;23.85;32.49;95971.72;4968773;28;1317;-80
2023/01/03 11:58:04;;;;;;;;;;;;;;;23.85;32.19;95974.41;4968972;28;1902;-80
2023/01/03 12:00:33;;;;;;;;;;;;;;;23.84;32.30;95970.91;4929932;29;1310;-80
2023/01/03 12:03:22;;;;;;;;;;;;;;;23.84;32.34;95967.41;4968212;28;1352;-80
2023/01/03 12:05:57;;;;;;;;;;;;;;;23.84;32.30;95962.03;4936462;29;1116;-80
2023/01/03 12:08:35;;;;;;;;;;;;;;;23.84;32.24;95954.81;4968048;28;1331;-80
2023/01/03 12:11:09;;;;;;;;;;;;;;;23.84;32.32;95962.84;4965477;28;1239;-83
2023/01/03 12:13:38;;;;;;;;;;;;;;;23.85;32.20;95952.97;4965212;28;1208;-80
2023/01/03 12:16:07;;;;;;;;;;;;;;;23.84;32.07;95959.34;4968772;28;1221;-80
2023/01/03 12:18:38;;;;;;;;;;;;;;;23.85;32.07;95952.97;4936633;29;1903;-80
2023/01/03 12:21:09;;;;;;;;;;;;;;;23.81;32.31;95957.91;4968462;28;1201;-78
2023/01/03 12:24:07;;;;;;;;;;;;;;;23.81;32.50;95947.19;4929209;28;1200;-79
2023/01/03 12:26:35;;;;;;;;;;;;;;;23.83;32.05;95949.69;4935968;29;1250;-79
2023/01/03 12:29:04;;;;;;;;;;;;;;;23.82;32.26;95948.81;4936455;29;1317;-78
2023/01/03 12:31:38;;;;;;;;;;;;;;;23.77;32.32;95943.28;4936143;29;1190;-79
2023/01/03 12:34:21;;;;;;;;;;;;;;;23.78;32.12;95945.72;4932948;29;1327;-79
2023/01/03 12:36:55;;;;;;;;;;;;;;;23.77;32.09;95943.28;4935136;29;1326;-78
2023/01/03 12:39:35;;;;;;;;;;;;;;;23.78;32.42;95947.59;4968139;28;1916;-78
2023/01/03 12:42:00;;;;;;;;;;;;;;;23.76;32.19;95947.81;4936373;29;1239;-79
2023/01/03 12:44:46;;;;;;;;;;;;;;;23.77;32.27;95945.94;4968446;28;1244;-79
2023/01/03 12:47:18;;;;;;;;;;;;;;;23.78;32.37;95942.22;4930257;28;1180;-79
2023/01/03 12:49:49;;;;;;;;;;;;;;;23.78;32.29;95942.22;4935947;29;1346;-79
2023/01/03 12:52:17;;;;;;;;;;;;;;;23.79;32.44;95941.19;4937226;29;923;-80
2023/01/03 12:54:55;;;;;;;;;;;;;;;23.78;32.33;95942.22;4936400;29;1306;-80
2023/01/03 12:57:31;;;;;;;;;;;;;;;23.78;32.38;95936.88;4930791;29;1015;-80
2023/01/03 13:00:09;;;;;;;;;;;;;;;23.80;32.07;95937.50;4936314;29;1899;-80
2023/01/03 13:02:46;;;;;;;;;;;;;;;23.81;32.33;95936.47;4937324;29;1199;-80
2023/01/03 13:05:12;;;;;;;;;;;;;;;23.82;32.17;95938.09;4937086;29;828;-80
2023/01/03 13:07:40;;;;;;;;;;;;;;;23.82;32.31;95940.78;4936680;29;1101;-80
2023/01/03 13:10:07;;;;;;;;;;;;;;;23.83;32.25;95939.78;4930164;29;1455;-80
2023/01/03 13:12:34;;;;;;;;;;;;;;;23.84;32.10;95929.88;4935390;29;1222;-80
2023/01/03 13:15:02;;;;;;;;;;;;;;;23.83;32.07;95947.81;4936393;29;1235;-80
2023/01/03 13:17:28;;;;;;;;;;;;;;;23.82;32.04;95940.78;4968171;28;1322;-80
2023/01/03 13:20:12;;;;;;;;;;;;;;;23.83;32.30;95922.88;4929252;29;1915;-78
2023/01/03 13:22:46;;;;;;;;;;;;;;;23.83;32.01;95941.63;4967775;28;1225;-79
2023/01/03 13:25:30;;;;;;;;;;;;;;;23.83;32.10;95944.31;4935996;29;1327;-79
2023/01/03 13:27:57;;;;;;;;;;;;;;;23.82;32.27;95934.59;4935936;29;1238;-80
2023/01/03 13:30:24;;;;;;;;;;;;;;;23.81;32.24;95931.09;4935114;29;1336;-81
2023/01/03 13:32:51;;;;;;;;;;;;;;;23.81;32.12;95941.81;4931089;29;1074;-80
2023/01/03 13:35:50;;;;;;;;;;;;;;;23.80;32.05;95932.16;4935519;29;1324;-81
2023/01/03 13:38:18;;;;;;;;;;;;;;;23.80;32.12;95934.81;4935825;29;1903;-79
2023/01/03 13:40:44;;;;;;;;;;;;;;;23.81;32.23;95930.28;4935561;29;1209;-79
2023/01/03 13:43:15;;;;;;;;;;;;;;;23.80;32.29;95929.47;4928642;29;1201;-80
2023/01/03 13:45:40;;;;;;;;;;;;;;;23.80;32.05;95929.47;4935460;29;1440;-77
2023/01/03 13:48:21;;;;;;;;;;;;;;;23.81;32.31;95930.28;4967332;28;1207;-78
2023/01/03 13:51:13;;;;;;;;;;;;;;;23.80;32.31;95932.16;4935516;29;1216;-78
2023/01/03 13:53:52;;;;;;;;;;;;;;;23.80;32.13;95921.44;4939024;28;1400;-78
2023/01/03 13:56:22;;;;;;;;;;;;;;;23.79;32.31;95922.44;4934003;29;1324;-78
2023/01/03 13:58:50;;;;;;;;;;;;;;;23.78;32.31;95918.13;4935374;29;1899;-78